Time;durP1;ratioP1;P1;durP2;ratioP2;P2;SDS_P1;SDS_P2;PMS_P1;PMS_P2;Temp;Humidity;BMP_temperature;BMP_pressure;BME280_temperature;BME280_humidity;BME280_pressure;Samples;Min_cycle;Max_cycle;Signal;HPM_P1;HPM_P2
2023/11/05 00:00:48;;;;;;;;;;;14.40;99.90;;;;;;4897866;29;19938;-78
2023/11/05 00:03:14;;;;;;;;;;;14.40;99.90;;;;;;4886325;29;19918;-79
2023/11/05 00:05:40;;;;;;;;;;;14.50;99.90;;;;;;4901904;29;19911;-78
2023/11/05 00:08:05;;;;;;;;;;;14.50;99.90;;;;;;4903274;29;20336;-77
2023/11/05 00:10:31;;;;;;;;;;;14.50;99.90;;;;;;4902919;29;19918;-80
2023/11/05 00:12:56;;;;;;;;;;;14.50;99.90;;;;;;4897546;29;19962;-77
2023/11/05 00:15:22;;;;;;;;;;;14.50;99.90;;;;;;4907658;29;19903;-78
2023/11/05 00:17:47;;;;;;;;;;;14.50;99.90;;;;;;4908394;29;19965;-77
2023/11/05 00:20:13;;;;;;;;;;;14.50;99.90;;;;;;4932201;29;20002;-79
2023/11/05 00:22:39;;;;;;;;;;;14.50;99.90;;;;;;4930076;29;19907;-78
2023/11/05 00:25:05;;;;;;;;;;;14.60;99.90;;;;;;4918960;29;19907;-79
2023/11/05 00:27:31;;;;;;;;;;;14.60;99.90;;;;;;4927922;29;19914;-76
2023/11/05 00:29:57;;;;;;;;;;;14.70;99.90;;;;;;4944960;29;19922;-77
2023/11/05 00:32:22;;;;;;;;;;;14.70;99.90;;;;;;4938938;29;19914;-78
2023/11/05 00:34:48;;;;;;;;;;;14.80;99.90;;;;;;4922260;29;19917;-77
2023/11/05 00:37:13;;;;;;;;;;;14.80;99.90;;;;;;4923716;29;20354;-79
2023/11/05 00:39:40;;;;;;;;;;;14.80;99.90;;;;;;4938678;29;19957;-79
2023/11/05 00:42:05;;;;;;;;;;;14.50;99.90;;;;;;4944288;29;19919;-77
2023/11/05 00:44:31;;;;;;;;;;;14.50;99.90;;;;;;4946839;29;19939;-78
2023/11/05 00:46:56;;;;;;;;;;;14.40;99.90;;;;;;4939079;29;19907;-77
2023/11/05 00:49:22;;;;;;;;;;;14.30;99.90;;;;;;4938875;29;19907;-78
2023/11/05 00:51:47;;;;;;;;;;;14.40;99.90;;;;;;4924109;29;20354;-80
2023/11/05 00:54:13;;;;;;;;;;;14.40;99.90;;;;;;4918505;29;19918;-77
2023/11/05 00:56:38;;;;;;;;;;;14.40;99.90;;;;;;4919322;29;19922;-77
2023/11/05 00:59:04;;;;;;;;;;;14.50;99.90;;;;;;4920515;29;19907;-77
2023/11/05 01:01:29;;;;;;;;;;;14.40;99.90;;;;;;4921445;29;19914;-77
2023/11/05 01:03:55;;;;;;;;;;;14.40;99.90;;;;;;4945366;29;19895;-77
2023/11/05 01:06:20;;;;;;;;;;;14.40;99.90;;;;;;4943817;29;19962;-77
2023/11/05 01:08:46;;;;;;;;;;;14.30;99.90;;;;;;4921098;29;19907;-77
2023/11/05 01:11:11;;;;;;;;;;;14.30;99.90;;;;;;4941507;29;19950;-78
2023/11/05 01:13:37;;;;;;;;;;;14.30;99.90;;;;;;4936482;29;20393;-77
2023/11/05 01:16:03;;;;;;;;;;;14.30;99.90;;;;;;4938191;29;19979;-77
2023/11/05 01:18:28;;;;;;;;;;;14.30;99.90;;;;;;4936303;29;19907;-77
2023/11/05 01:20:56;;;;;;;;;;;14.50;99.90;;;;;;4927008;29;20277;-77
2023/11/05 01:23:21;;;;;;;;;;;14.50;99.90;;;;;;4932052;29;20049;-77
2023/11/05 01:25:47;;;;;;;;;;;14.50;99.90;;;;;;4938179;29;19973;-77
2023/11/05 01:28:12;;;;;;;;;;;14.50;99.90;;;;;;4922651;29;19998;-78
2023/11/05 01:30:38;;;;;;;;;;;14.50;99.90;;;;;;4935187;29;19917;-77
2023/11/05 01:33:03;;;;;;;;;;;14.60;99.90;;;;;;4923805;29;19910;-80
2023/11/05 01:35:29;;;;;;;;;;;14.60;99.90;;;;;;4937686;29;19914;-79
2023/11/05 01:37:54;;;;;;;;;;;14.60;99.90;;;;;;4937775;29;20394;-78
2023/11/05 01:40:20;;;;;;;;;;;14.70;99.90;;;;;;4940634;29;19950;-77
2023/11/05 01:42:49;;;;;;;;;;;14.60;99.90;;;;;;4937771;29;19915;-79
2023/11/05 01:45:15;;;;;;;;;;;14.60;99.90;;;;;;4937642;29;19907;-77
2023/11/05 01:47:40;;;;;;;;;;;14.60;99.90;;;;;;4939113;29;19966;-77
2023/11/05 01:50:06;;;;;;;;;;;14.60;99.90;;;;;;4937612;29;19906;-76
2023/11/05 01:52:31;;;;;;;;;;;14.10;99.90;;;;;;4937710;29;20023;-77
2023/11/05 01:54:57;;;;;;;;;;;13.70;99.90;;;;;;4947048;29;20399;-77
2023/11/05 01:57:22;;;;;;;;;;;13.30;99.90;;;;;;4938064;29;19998;-76
2023/11/05 01:59:48;;;;;;;;;;;12.70;99.90;;;;;;4937320;29;19961;-76
2023/11/05 02:02:14;;;;;;;;;;;12.20;99.90;;;;;;4952240;29;19934;-78
2023/11/05 02:04:39;;;;;;;;;;;11.90;99.90;;;;;;4940862;29;19911;-76
2023/11/05 02:07:05;;;;;;;;;;;11.90;99.90;;;;;;4936720;29;19907;-77
2023/11/05 02:09:31;;;;;;;;;;;11.90;99.90;;;;;;4938338;29;20377;-76
2023/11/05 02:11:58;;;;;;;;;;;12.10;99.90;;;;;;4931105;29;19966;-76
2023/11/05 02:14:24;;;;;;;;;;;12.30;99.90;;;;;;4917984;29;19914;-77
2023/11/05 02:16:49;;;;;;;;;;;12.60;99.90;;;;;;4918371;29;19907;-76
2023/11/05 02:19:15;;;;;;;;;;;12.80;99.90;;;;;;4932522;29;19962;-77
2023/11/05 02:21:42;;;;;;;;;;;12.90;99.90;;;;;;4923824;29;19911;-77
2023/11/05 02:24:08;;;;;;;;;;;13.00;99.90;;;;;;4909724;29;19916;-77
2023/11/05 02:26:33;;;;;;;;;;;13.00;99.90;;;;;;4940137;29;19998;-77
2023/11/05 02:28:59;;;;;;;;;;;13.00;99.90;;;;;;4916820;29;20267;-77
2023/11/05 02:31:25;;;;;;;;;;;13.10;99.90;;;;;;4920082;29;19914;-77
2023/11/05 02:33:50;;;;;;;;;;;13.10;99.90;;;;;;4904658;29;19927;-78
2023/11/05 02:36:16;;;;;;;;;;;13.20;99.90;;;;;;4931592;29;20024;-77
2023/11/05 02:38:42;;;;;;;;;;;13.40;99.90;;;;;;4941516;29;19891;-77
2023/11/05 02:41:10;;;;;;;;;;;13.60;99.90;;;;;;4921469;29;20095;-77
2023/11/05 02:43:36;;;;;;;;;;;13.70;99.90;;;;;;4936713;29;19997;-77
2023/11/05 02:46:02;;;;;;;;;;;13.70;99.90;;;;;;4920987;29;19945;-79
2023/11/05 02:48:27;;;;;;;;;;;13.60;99.90;;;;;;4921335;29;19917;-76
2023/11/05 02:50:53;;;;;;;;;;;13.70;99.90;;;;;;4936825;29;19961;-77
2023/11/05 02:53:19;;;;;;;;;;;13.60;99.90;;;;;;4922310;29;19915;-77
2023/11/05 02:55:45;;;;;;;;;;;13.60;99.90;;;;;;4936772;29;19953;-78
2023/11/05 02:58:14;;;;;;;;;;;13.70;99.90;;;;;;4936414;29;19913;-77
2023/11/05 03:00:40;;;;;;;;;;;13.60;99.90;;;;;;4928275;29;20274;-77
2023/11/05 03:03:05;;;;;;;;;;;13.70;99.90;;;;;;4936732;29;19911;-76
2023/11/05 03:05:31;;;;;;;;;;;13.90;99.90;;;;;;4936055;29;19911;-77
2023/11/05 03:07:56;;;;;;;;;;;13.90;99.90;;;;;;4938580;29;19911;-77
2023/11/05 03:10:22;;;;;;;;;;;13.90;99.90;;;;;;4936352;29;19907;-77
2023/11/05 03:12:47;;;;;;;;;;;13.90;99.90;;;;;;4922112;29;20399;-77
2023/11/05 03:15:13;;;;;;;;;;;13.90;99.90;;;;;;4931175;29;19895;-77
2023/11/05 03:17:39;;;;;;;;;;;13.90;99.90;;;;;;4922764;29;19937;-78
2023/11/05 03:20:07;;;;;;;;;;;14.00;99.90;;;;;;4931883;29;19919;-77
2023/11/05 03:22:34;;;;;;;;;;;13.80;99.90;;;;;;4914483;29;19922;-76
2023/11/05 03:25:00;;;;;;;;;;;13.50;99.90;;;;;;4917990;29;19922;-78
2023/11/05 03:27:25;;;;;;;;;;;13.40;99.90;;;;;;4917326;29;19907;-77
2023/11/05 03:29:51;;;;;;;;;;;13.40;99.90;;;;;;4929846;29;19922;-77
2023/11/05 03:32:16;;;;;;;;;;;13.50;99.90;;;;;;4919233;29;19915;-76
2023/11/05 03:34:42;;;;;;;;;;;13.50;99.90;;;;;;4930469;29;19907;-77
2023/11/05 03:37:07;;;;;;;;;;;13.60;99.90;;;;;;4924258;29;19915;-77
2023/11/05 03:39:33;;;;;;;;;;;13.70;99.90;;;;;;4919441;29;19907;-76
2023/11/05 03:41:58;;;;;;;;;;;13.80;99.90;;;;;;4932234;29;20449;-76
2023/11/05 03:44:24;;;;;;;;;;;13.90;99.90;;;;;;4929215;29;19966;-77
2023/11/05 03:46:50;;;;;;;;;;;13.80;99.90;;;;;;4945064;29;20413;-77
2023/11/05 03:49:15;;;;;;;;;;;13.80;99.90;;;;;;4939855;29;19914;-76
2023/11/05 03:51:41;;;;;;;;;;;13.80;99.90;;;;;;4926834;29;19891;-77
2023/11/05 03:54:06;;;;;;;;;;;13.80;99.90;;;;;;4941426;29;19965;-77
2023/11/05 03:56:32;;;;;;;;;;;13.70;99.90;;;;;;4939143;29;19972;-76
2023/11/05 03:58:57;;;;;;;;;;;13.60;99.90;;;;;;4945461;29;19930;-77
2023/11/05 04:01:23;;;;;;;;;;;13.60;99.90;;;;;;4942895;29;19961;-77
2023/11/05 04:03:48;;;;;;;;;;;13.60;99.90;;;;;;4939774;29;19906;-76
2023/11/05 04:06:17;;;;;;;;;;;13.60;99.90;;;;;;4947962;29;19895;-76
2023/11/05 04:08:44;;;;;;;;;;;13.60;99.90;;;;;;4923651;29;19914;-80
2023/11/05 04:11:09;;;;;;;;;;;13.50;99.90;;;;;;4932912;29;19907;-77
2023/11/05 04:13:36;;;;;;;;;;;13.60;99.90;;;;;;4904557;29;20104;-77
2023/11/05 04:16:02;;;;;;;;;;;13.60;99.90;;;;;;4901238;29;20279;-77
2023/11/05 04:18:27;;;;;;;;;;;13.70;99.90;;;;;;4922212;29;19926;-77
2023/11/05 04:20:53;;;;;;;;;;;13.80;99.90;;;;;;4929738;29;19919;-77
2023/11/05 04:23:19;;;;;;;;;;;13.80;99.90;;;;;;4922016;29;19907;-76
2023/11/05 04:25:44;;;;;;;;;;;13.70;99.90;;;;;;4939083;29;20006;-77
2023/11/05 04:28:10;;;;;;;;;;;13.70;99.90;;;;;;4929040;29;19915;-77
2023/11/05 04:30:35;;;;;;;;;;;13.80;99.90;;;;;;4936747;29;19999;-77
2023/11/05 04:33:00;;;;;;;;;;;13.80;99.90;;;;;;4921954;29;20370;-77
2023/11/05 04:35:26;;;;;;;;;;;13.90;99.90;;;;;;4940791;29;19915;-77
2023/11/05 04:37:52;;;;;;;;;;;13.90;99.90;;;;;;4939162;29;19910;-77
2023/11/05 04:40:17;;;;;;;;;;;13.90;99.90;;;;;;4938997;29;19997;-77
2023/11/05 04:42:44;;;;;;;;;;;13.90;99.90;;;;;;4935342;29;20486;-76
2023/11/05 04:45:10;;;;;;;;;;;13.80;99.90;;;;;;4919568;29;19907;-78
2023/11/05 04:47:35;;;;;;;;;;;13.70;99.90;;;;;;4919870;29;19931;-76
2023/11/05 04:50:02;;;;;;;;;;;13.50;99.90;;;;;;4925992;29;19915;-76
2023/11/05 04:52:28;;;;;;;;;;;13.20;99.90;;;;;;4918225;29;19921;-75
2023/11/05 04:54:54;;;;;;;;;;;13.00;99.90;;;;;;4919940;29;19998;-77
2023/11/05 04:57:20;;;;;;;;;;;12.90;99.90;;;;;;4945699;29;19922;-77
2023/11/05 04:59:46;;;;;;;;;;;12.80;99.90;;;;;;4940374;29;19949;-77
2023/11/05 05:02:11;;;;;;;;;;;12.80;99.90;;;;;;4938852;29;19911;-77
2023/11/05 05:04:37;;;;;;;;;;;12.90;99.90;;;;;;4944070;29;19923;-77
2023/11/05 05:07:03;;;;;;;;;;;12.90;99.90;;;;;;4921107;29;20013;-77
2023/11/05 05:09:28;;;;;;;;;;;13.00;99.90;;;;;;4921025;29;19918;-77
2023/11/05 05:11:54;;;;;;;;;;;13.10;99.90;;;;;;4928341;29;19891;-77
2023/11/05 05:14:19;;;;;;;;;;;13.20;99.90;;;;;;4923909;29;19914;-77
2023/11/05 05:16:45;;;;;;;;;;;13.30;99.90;;;;;;4933072;29;20397;-77
2023/11/05 05:19:10;;;;;;;;;;;13.30;99.90;;;;;;4926243;29;19914;-77
2023/11/05 05:21:43;;;;;;;;;;;13.40;99.90;;;;;;4925150;29;19963;-77
2023/11/05 05:24:09;;;;;;;;;;;13.40;99.90;;;;;;4920886;29;19907;-77
2023/11/05 05:26:35;;;;;;;;;;;13.40;99.90;;;;;;4926828;29;19918;-77
2023/11/05 05:29:00;;;;;;;;;;;13.40;99.90;;;;;;4924681;29;19907;-77
2023/11/05 05:31:26;;;;;;;;;;;13.40;99.90;;;;;;4938396;29;19953;-77
2023/11/05 05:33:51;;;;;;;;;;;13.20;99.90;;;;;;4941109;29;19914;-77
2023/11/05 05:36:17;;;;;;;;;;;13.00;99.90;;;;;;4920782;29;20290;-77
2023/11/05 05:38:42;;;;;;;;;;;12.80;99.90;;;;;;4921159;29;19911;-77
2023/11/05 05:41:08;;;;;;;;;;;12.70;99.90;;;;;;4924508;29;19915;-77
2023/11/05 05:43:33;;;;;;;;;;;12.60;99.90;;;;;;4918629;29;20353;-77
2023/11/05 05:45:59;;;;;;;;;;;12.40;99.90;;;;;;4917574;29;19907;-78
2023/11/05 05:48:24;;;;;;;;;;;12.50;99.90;;;;;;4922115;29;19911;-77
2023/11/05 05:50:50;;;;;;;;;;;12.70;99.90;;;;;;4917064;29;19915;-77
2023/11/05 05:53:16;;;;;;;;;;;12.90;99.90;;;;;;4918780;29;20389;-77
2023/11/05 05:55:41;;;;;;;;;;;13.10;99.90;;;;;;4922080;29;19915;-78
2023/11/05 05:58:07;;;;;;;;;;;13.20;99.90;;;;;;4920284;29;19907;-77
2023/11/05 06:00:33;;;;;;;;;;;13.20;99.90;;;;;;4937594;29;20256;-77
2023/11/05 06:02:58;;;;;;;;;;;13.20;99.90;;;;;;4938478;29;19921;-78
2023/11/05 06:05:24;;;;;;;;;;;13.20;99.90;;;;;;4918408;29;19930;-77
2023/11/05 06:07:49;;;;;;;;;;;13.30;99.90;;;;;;4923530;29;19907;-77
2023/11/05 06:10:15;;;;;;;;;;;13.20;99.90;;;;;;4901218;29;19907;-77
2023/11/05 06:12:40;;;;;;;;;;;13.30;99.90;;;;;;4905096;29;20286;-77
2023/11/05 06:15:07;;;;;;;;;;;13.30;99.90;;;;;;4922703;29;19941;-77
2023/11/05 06:17:32;;;;;;;;;;;13.20;99.90;;;;;;4927266;29;19918;-77
2023/11/05 06:19:58;;;;;;;;;;;13.30;99.90;;;;;;4927074;29;19922;-77
2023/11/05 06:22:23;;;;;;;;;;;13.30;99.90;;;;;;4912758;29;19916;-76
2023/11/05 06:24:49;;;;;;;;;;;13.20;99.90;;;;;;4899687;29;19907;-77
2023/11/05 06:27:14;;;;;;;;;;;13.20;99.90;;;;;;4912257;29;20298;-77
2023/11/05 06:29:40;;;;;;;;;;;13.30;99.90;;;;;;4921713;29;19955;-77
2023/11/05 06:32:05;;;;;;;;;;;13.20;99.90;;;;;;4905301;29;19910;-77
2023/11/05 06:34:31;;;;;;;;;;;13.30;99.90;;;;;;4936976;29;19907;-77
2023/11/05 06:36:56;;;;;;;;;;;13.30;99.90;;;;;;4942474;29;20013;-77
2023/11/05 06:39:22;;;;;;;;;;;13.30;99.90;;;;;;4916539;29;20394;-77
2023/11/05 06:41:47;;;;;;;;;;;13.30;99.90;;;;;;4921991;29;19915;-76
2023/11/05 06:44:13;;;;;;;;;;;13.20;99.90;;;;;;4932853;29;19918;-78
2023/11/05 06:46:38;;;;;;;;;;;12.90;99.90;;;;;;4916639;29;19911;-77
2023/11/05 06:49:04;;;;;;;;;;;12.70;99.90;;;;;;4923674;29;19895;-77
2023/11/05 06:51:29;;;;;;;;;;;12.60;99.90;;;;;;4936450;29;19975;-77
2023/11/05 06:53:55;;;;;;;;;;;12.60;99.90;;;;;;4936407;29;19910;-78
2023/11/05 06:56:20;;;;;;;;;;;12.60;99.90;;;;;;4928233;29;19911;-77
2023/11/05 06:58:47;;;;;;;;;;;12.50;99.90;;;;;;4925640;29;20319;-77
2023/11/05 07:01:13;;;;;;;;;;;12.60;99.90;;;;;;4927341;29;19918;-76
2023/11/05 07:03:38;;;;;;;;;;;12.60;99.90;;;;;;4944333;29;19944;-78
2023/11/05 07:06:04;;;;;;;;;;;12.70;99.90;;;;;;4932857;29;19974;-76
2023/11/05 07:08:31;;;;;;;;;;;12.70;99.90;;;;;;4937008;29;19954;-77
2023/11/05 07:10:56;;;;;;;;;;;12.80;99.90;;;;;;4944130;29;19899;-77
2023/11/05 07:13:22;;;;;;;;;;;12.80;99.90;;;;;;4916480;29;19919;-77
2023/11/05 07:15:48;;;;;;;;;;;12.90;99.90;;;;;;4921333;29;19998;-77
2023/11/05 07:18:13;;;;;;;;;;;12.90;99.90;;;;;;4929763;29;19982;-78
2023/11/05 07:20:39;;;;;;;;;;;12.80;99.90;;;;;;4926310;29;19910;-77
2023/11/05 07:23:04;;;;;;;;;;;12.70;99.90;;;;;;4929663;29;20351;-78
2023/11/05 07:25:30;;;;;;;;;;;12.80;99.90;;;;;;4924186;29;19907;-77
2023/11/05 07:27:55;;;;;;;;;;;12.80;99.90;;;;;;4910618;29;19957;-77
2023/11/05 07:30:21;;;;;;;;;;;12.80;99.90;;;;;;4931967;29;20426;-77
2023/11/05 07:32:48;;;;;;;;;;;12.50;99.90;;;;;;4926523;29;19930;-77
2023/11/05 07:35:13;;;;;;;;;;;12.40;99.90;;;;;;4942831;29;20381;-77
2023/11/05 07:37:39;;;;;;;;;;;12.50;99.90;;;;;;4922811;29;19907;-77
2023/11/05 07:40:06;;;;;;;;;;;12.70;99.90;;;;;;4929601;29;19929;-77
2023/11/05 07:42:32;;;;;;;;;;;12.80;99.90;;;;;;4921193;29;20271;-77
2023/11/05 07:44:57;;;;;;;;;;;12.90;99.90;;;;;;4921082;29;19907;-77
2023/11/05 07:47:23;;;;;;;;;;;12.90;99.90;;;;;;4922648;29;19918;-77
2023/11/05 07:49:48;;;;;;;;;;;12.90;99.90;;;;;;4919370;29;20357;-77
2023/11/05 07:52:14;;;;;;;;;;;12.90;99.90;;;;;;4934189;29;19910;-77
2023/11/05 07:54:40;;;;;;;;;;;13.00;99.90;;;;;;4944258;29;19897;-77
2023/11/05 07:57:05;;;;;;;;;;;13.00;99.90;;;;;;4941660;29;19914;-77
2023/11/05 07:59:31;;;;;;;;;;;13.10;99.90;;;;;;4939472;29;19990;-77
2023/11/05 08:01:58;;;;;;;;;;;13.10;99.90;;;;;;4940871;29;19915;-77
2023/11/05 08:04:25;;;;;;;;;;;13.00;99.90;;;;;;4928869;29;19910;-77
2023/11/05 08:06:50;;;;;;;;;;;12.90;99.90;;;;;;4922427;29;19910;-77
2023/11/05 08:09:16;;;;;;;;;;;12.80;99.90;;;;;;4942953;29;19917;-78
2023/11/05 08:11:43;;;;;;;;;;;12.70;99.90;;;;;;4924675;29;19908;-77
2023/11/05 08:14:09;;;;;;;;;;;12.60;99.90;;;;;;4891693;29;20025;-77
2023/11/05 08:16:36;;;;;;;;;;;12.60;99.90;;;;;;4938957;29;20370;-77
2023/11/05 08:19:02;;;;;;;;;;;12.70;99.90;;;;;;4928118;29;20473;-77
2023/11/05 08:21:27;;;;;;;;;;;12.90;99.90;;;;;;4926056;29;19986;-78
2023/11/05 08:23:53;;;;;;;;;;;13.00;99.90;;;;;;4953184;29;19974;-78
2023/11/05 08:26:18;;;;;;;;;;;13.30;99.90;;;;;;4919886;29;20376;-78
2023/11/05 08:28:44;;;;;;;;;;;13.30;99.90;;;;;;4903815;29;19908;-77
2023/11/05 08:31:11;;;;;;;;;;;13.10;99.90;;;;;;4922756;29;19914;-77
2023/11/05 08:33:38;;;;;;;;;;;13.00;99.90;;;;;;4923530;29;19915;-77
2023/11/05 08:36:05;;;;;;;;;;;12.90;99.90;;;;;;4920296;29;19999;-79
2023/11/05 08:38:31;;;;;;;;;;;12.90;99.90;;;;;;4926109;29;19899;-77
2023/11/05 08:40:56;;;;;;;;;;;12.80;99.90;;;;;;4921568;29;19966;-77
2023/11/05 08:43:22;;;;;;;;;;;12.80;99.90;;;;;;4903388;29;19914;-77
2023/11/05 08:45:47;;;;;;;;;;;13.00;99.90;;;;;;4903020;29;19907;-77
2023/11/05 08:48:13;;;;;;;;;;;13.30;99.90;;;;;;4925317;29;20283;-78
2023/11/05 08:50:39;;;;;;;;;;;13.90;99.90;;;;;;4919977;29;19911;-77
2023/11/05 08:53:04;;;;;;;;;;;14.00;99.90;;;;;;4918871;29;19962;-77
2023/11/05 08:55:30;;;;;;;;;;;13.60;99.90;;;;;;4921186;29;19915;-77
2023/11/05 08:57:57;;;;;;;;;;;13.30;99.90;;;;;;4920057;29;19978;-78
2023/11/05 09:00:26;;;;;;;;;;;13.10;99.90;;;;;;4926559;29;19891;-77
2023/11/05 09:02:52;;;;;;;;;;;13.00;99.90;;;;;;4923237;29;19915;-77
2023/11/05 09:05:18;;;;;;;;;;;12.90;99.90;;;;;;4939465;29;19998;-78
2023/11/05 09:07:43;;;;;;;;;;;12.90;99.90;;;;;;4944879;29;19926;-77
2023/11/05 09:10:09;;;;;;;;;;;12.70;99.90;;;;;;4938623;29;19907;-78
2023/11/05 09:12:35;;;;;;;;;;;12.70;99.90;;;;;;4927841;29;20009;-77
2023/11/05 09:15:02;;;;;;;;;;;12.90;99.90;;;;;;4939648;29;19927;-78
2023/11/05 09:17:28;;;;;;;;;;;12.80;99.90;;;;;;4934752;29;19997;-77
2023/11/05 09:19:53;;;;;;;;;;;12.90;99.90;;;;;;4917474;29;20001;-77
2023/11/05 09:22:20;;;;;;;;;;;12.90;99.90;;;;;;4927989;29;19947;-78
2023/11/05 09:24:45;;;;;;;;;;;13.00;99.90;;;;;;4918376;29;19949;-77
2023/11/05 09:27:11;;;;;;;;;;;13.00;99.90;;;;;;4918987;29;20383;-77
2023/11/05 09:29:36;;;;;;;;;;;13.30;99.90;;;;;;4920290;29;19921;-78
2023/11/05 09:32:02;;;;;;;;;;;13.50;99.90;;;;;;4917079;29;19914;-77
2023/11/05 09:34:27;;;;;;;;;;;13.80;99.90;;;;;;4918082;29;20394;-77
2023/11/05 09:36:53;;;;;;;;;;;14.00;99.90;;;;;;4919288;29;19962;-77
2023/11/05 09:39:18;;;;;;;;;;;14.20;99.90;;;;;;4918994;29;19955;-78
2023/11/05 09:41:44;;;;;;;;;;;14.40;99.90;;;;;;4918294;29;19911;-77
2023/11/05 09:44:09;;;;;;;;;;;14.60;99.90;;;;;;4923781;29;20375;-77
2023/11/05 09:46:36;;;;;;;;;;;14.70;99.90;;;;;;4918516;29;19911;-77
2023/11/05 09:49:02;;;;;;;;;;;15.10;99.90;;;;;;4917849;29;19911;-78
2023/11/05 09:51:28;;;;;;;;;;;15.50;99.90;;;;;;4928168;29;19914;-77
2023/11/05 09:53:53;;;;;;;;;;;15.30;99.90;;;;;;4919956;29;19938;-77
2023/11/05 09:56:19;;;;;;;;;;;14.00;99.90;;;;;;4917440;29;19915;-77
2023/11/05 09:58:45;;;;;;;;;;;13.40;99.90;;;;;;4924143;29;19979;-77
2023/11/05 10:01:10;;;;;;;;;;;13.10;99.90;;;;;;4917384;29;19986;-77
2023/11/05 10:03:36;;;;;;;;;;;13.30;99.90;;;;;;4919179;29;19946;-78
2023/11/05 10:06:03;;;;;;;;;;;13.30;99.90;;;;;;4919725;29;19955;-78
2023/11/05 10:08:28;;;;;;;;;;;13.70;99.90;;;;;;4919080;29;19915;-77
2023/11/05 10:10:57;;;;;;;;;;;14.10;99.90;;;;;;4920181;29;19942;-77
2023/11/05 10:13:27;;;;;;;;;;;14.30;99.90;;;;;;4918823;29;19915;-78
2023/11/05 10:15:52;;;;;;;;;;;14.40;99.90;;;;;;4930151;29;19915;-78
2023/11/05 10:18:18;;;;;;;;;;;14.40;99.90;;;;;;4918236;29;19923;-78
2023/11/05 10:20:51;;;;;;;;;;;14.60;99.90;;;;;;4915332;29;19915;-77
2023/11/05 10:23:17;;;;;;;;;;;14.80;99.90;;;;;;4932018;29;19911;-78
2023/11/05 10:25:45;;;;;;;;;;;15.00;99.90;;;;;;4936893;29;19913;-78
2023/11/05 10:28:12;;;;;;;;;;;15.20;99.90;;;;;;4924026;29;19907;-78
2023/11/05 10:30:37;;;;;;;;;;;15.30;99.90;;;;;;4941003;29;19915;-77
2023/11/05 10:33:03;;;;;;;;;;;15.30;99.90;;;;;;4920057;29;20374;-77
2023/11/05 10:35:32;;;;;;;;;;;15.40;99.90;;;;;;4937004;29;20370;-77
2023/11/05 10:37:57;;;;;;;;;;;15.30;99.90;;;;;;4950588;29;19906;-77
2023/11/05 10:40:24;;;;;;;;;;;15.30;99.90;;;;;;4921584;29;19907;-77
2023/11/05 10:42:50;;;;;;;;;;;15.20;99.90;;;;;;4917989;29;19914;-77
2023/11/05 10:45:17;;;;;;;;;;;15.10;99.90;;;;;;4924391;29;19911;-78
2023/11/05 10:47:45;;;;;;;;;;;15.20;99.90;;;;;;4917618;29;19907;-77
2023/11/05 10:50:14;;;;;;;;;;;15.40;99.90;;;;;;4917637;29;19911;-78
2023/11/05 10:52:41;;;;;;;;;;;15.50;99.90;;;;;;4926946;29;19962;-77
2023/11/05 10:55:07;;;;;;;;;;;15.50;99.90;;;;;;4936573;29;19914;-77
2023/11/05 10:57:48;;;;;;;;;;;15.60;99.90;;;;;;4936477;29;20318;-77
2023/11/05 11:00:14;;;;;;;;;;;15.70;99.90;;;;;;4939835;29;19962;-77
2023/11/05 11:02:40;;;;;;;;;;;15.90;99.90;;;;;;4936697;29;19915;-77
2023/11/05 11:05:09;;;;;;;;;;;15.90;99.90;;;;;;4936471;29;19907;-77
2023/11/05 11:07:38;;;;;;;;;;;15.90;99.90;;;;;;4945232;29;19919;-77
2023/11/05 11:10:04;;;;;;;;;;;16.10;99.90;;;;;;4936493;29;19917;-77
2023/11/05 11:12:31;;;;;;;;;;;16.00;99.90;;;;;;4924637;29;19915;-77
2023/11/05 11:14:56;;;;;;;;;;;16.10;99.90;;;;;;4920893;29;20318;-77
2023/11/05 11:17:31;;;;;;;;;;;16.10;99.90;;;;;;4917209;29;19907;-78
2023/11/05 11:19:56;;;;;;;;;;;16.10;99.90;;;;;;4916739;29;19966;-77
2023/11/05 11:22:39;;;;;;;;;;;16.10;99.90;;;;;;4927629;29;19915;-77
2023/11/05 11:25:05;;;;;;;;;;;16.10;99.90;;;;;;4917091;29;20354;-77
2023/11/05 11:27:31;;;;;;;;;;;16.10;99.90;;;;;;4911757;29;19907;-77
2023/11/05 11:29:57;;;;;;;;;;;16.10;99.90;;;;;;4923441;29;19975;-78
2023/11/05 11:32:22;;;;;;;;;;;16.10;99.90;;;;;;4917529;29;19915;-77
2023/11/05 11:34:48;;;;;;;;;;;16.20;99.90;;;;;;4916049;29;20359;-77
2023/11/05 11:37:17;;;;;;;;;;;16.20;99.90;;;;;;4918984;29;19922;-77
2023/11/05 11:39:42;;;;;;;;;;;16.30;99.90;;;;;;4915959;29;20005;-77
2023/11/05 11:42:08;;;;;;;;;;;16.30;99.90;;;;;;4922301;29;20378;-77
2023/11/05 11:44:34;;;;;;;;;;;16.40;99.90;;;;;;4916036;29;19954;-77
2023/11/05 11:46:59;;;;;;;;;;;16.50;99.90;;;;;;4916130;29;19907;-78
2023/11/05 11:49:27;;;;;;;;;;;16.60;99.90;;;;;;4929484;29;19895;-77
2023/11/05 11:51:52;;;;;;;;;;;16.70;99.90;;;;;;4918753;29;19915;-78
2023/11/05 11:54:18;;;;;;;;;;;16.90;99.90;;;;;;4917352;29;19923;-78
2023/11/05 11:56:44;;;;;;;;;;;16.70;99.90;;;;;;4926019;29;19914;-77
2023/11/05 11:59:09;;;;;;;;;;;16.70;99.90;;;;;;4921931;29;19917;-77
2023/11/05 12:01:38;;;;;;;;;;;16.80;99.90;;;;;;4932555;29;19911;-77
2023/11/05 12:04:04;;;;;;;;;;;16.60;99.90;;;;;;4925673;29;19914;-78
2023/11/05 12:06:29;;;;;;;;;;;16.30;99.90;;;;;;4939175;29;19918;-77
2023/11/05 12:08:55;;;;;;;;;;;16.10;99.90;;;;;;4939476;29;19907;-78
2023/11/05 12:11:22;;;;;;;;;;;16.20;99.90;;;;;;4925664;29;19993;-77
2023/11/05 12:13:48;;;;;;;;;;;15.90;99.90;;;;;;4901744;29;19922;-77
2023/11/05 12:16:17;;;;;;;;;;;15.60;99.90;;;;;;4901585;29;19907;-77
2023/11/05 12:18:43;;;;;;;;;;;15.90;99.90;;;;;;4914181;29;20290;-78
2023/11/05 12:21:13;;;;;;;;;;;16.60;99.90;;;;;;4919233;29;19915;-77
2023/11/05 12:23:42;;;;;;;;;;;17.00;99.90;;;;;;4918839;29;19911;-77
2023/11/05 12:26:09;;;;;;;;;;;17.00;99.90;;;;;;4931239;29;19912;-78
2023/11/05 12:28:34;;;;;;;;;;;17.20;99.90;;;;;;4919810;29;19907;-77
2023/11/05 12:31:03;;;;;;;;;;;18.00;99.90;;;;;;4920001;29;19913;-77
2023/11/05 12:33:33;;;;;;;;;;;18.30;99.90;;;;;;4932686;29;19923;-76
2023/11/05 12:35:59;;;;;;;;;;;18.50;99.90;;;;;;4920280;29;19954;-76
2023/11/05 12:38:25;;;;;;;;;;;18.10;99.90;;;;;;4920019;29;19907;-78
2023/11/05 12:40:52;;;;;;;;;;;18.00;99.90;;;;;;4926776;29;19895;-76
2023/11/05 12:43:19;;;;;;;;;;;17.50;99.90;;;;;;4922256;29;20022;-77
2023/11/05 12:45:45;;;;;;;;;;;17.40;99.90;;;;;;4919641;29;19914;-78
2023/11/05 12:48:10;;;;;;;;;;;17.40;99.90;;;;;;4921333;29;19911;-76
2023/11/05 12:50:36;;;;;;;;;;;17.10;99.90;;;;;;4919629;29;19950;-77
2023/11/05 12:53:02;;;;;;;;;;;17.10;99.90;;;;;;4919866;29;20407;-78
2023/11/05 12:55:29;;;;;;;;;;;17.00;99.90;;;;;;4922834;29;20306;-77
2023/11/05 12:57:55;;;;;;;;;;;16.80;99.90;;;;;;4918843;29;19930;-77
2023/11/05 13:00:21;;;;;;;;;;;16.80;99.90;;;;;;4919978;29;19907;-77
2023/11/05 13:02:49;;;;;;;;;;;16.30;99.90;;;;;;4930934;29;19933;-76
2023/11/05 13:05:16;;;;;;;;;;;16.20;99.90;;;;;;4919556;29;19918;-78
2023/11/05 13:07:42;;;;;;;;;;;16.20;99.90;;;;;;4919251;29;19911;-77
2023/11/05 13:10:09;;;;;;;;;;;16.00;99.90;;;;;;4921015;29;20370;-78
2023/11/05 13:12:37;;;;;;;;;;;16.00;99.90;;;;;;4915124;29;20393;-77
2023/11/05 13:15:09;;;;;;;;;;;15.80;99.90;;;;;;4927707;29;19923;-76
2023/11/05 13:17:35;;;;;;;;;;;16.00;99.90;;;;;;4920735;29;19915;-77
2023/11/05 13:20:00;;;;;;;;;;;16.00;99.90;;;;;;4918000;29;19915;-77
2023/11/05 13:22:26;;;;;;;;;;;15.50;99.90;;;;;;4932513;29;19906;-77
2023/11/05 13:24:51;;;;;;;;;;;15.60;99.90;;;;;;4922998;29;19911;-76
2023/11/05 13:27:18;;;;;;;;;;;15.90;99.90;;;;;;4931917;29;20297;-79
2023/11/05 13:29:44;;;;;;;;;;;16.30;99.90;;;;;;4927265;29;20364;-76
2023/11/05 13:32:11;;;;;;;;;;;16.60;99.90;;;;;;4948141;29;19911;-76
2023/11/05 13:34:37;;;;;;;;;;;16.60;99.90;;;;;;4938106;29;20377;-77
2023/11/05 13:37:02;;;;;;;;;;;16.60;99.90;;;;;;4920768;29;19907;-76
2023/11/05 13:39:28;;;;;;;;;;;16.30;99.90;;;;;;4927013;29;19950;-77
2023/11/05 13:41:54;;;;;;;;;;;16.20;99.90;;;;;;4918669;29;20298;-77
2023/11/05 13:44:20;;;;;;;;;;;16.50;99.90;;;;;;4917423;29;19922;-77
2023/11/05 13:46:46;;;;;;;;;;;16.90;99.90;;;;;;4925970;29;19947;-77
2023/11/05 13:49:12;;;;;;;;;;;16.90;99.90;;;;;;4918835;29;19910;-78
2023/11/05 13:51:37;;;;;;;;;;;16.90;99.90;;;;;;4919145;29;19907;-77
2023/11/05 13:54:03;;;;;;;;;;;16.90;99.90;;;;;;4920346;29;19925;-77
2023/11/05 13:56:29;;;;;;;;;;;17.00;99.90;;;;;;4917207;29;20299;-77
2023/11/05 13:58:54;;;;;;;;;;;17.20;99.90;;;;;;4917094;29;19914;-77
2023/11/05 14:01:21;;;;;;;;;;;16.60;99.90;;;;;;4936006;29;19915;-77
2023/11/05 14:03:47;;;;;;;;;;;16.10;99.90;;;;;;4918329;29;19954;-77
2023/11/05 14:06:13;;;;;;;;;;;15.90;99.90;;;;;;4918163;29;20382;-77
2023/11/05 14:08:39;;;;;;;;;;;15.70;99.90;;;;;;4921178;29;19915;-76